TOW2232 EGVN-FHAW
Flight info
| Callsign | TOW2232 |
|---|---|
| Flight time | N/A |
| Altitude | 35000 |
| Route | CONKO L18 UNZIB DCT GAJIT DCT ADKIK DCT DAWLY DCT GAPLI/M083F360 DCT GUNSO DCT OMOKO T16 EKROL/M083F370 T16 NAVIX/N0473F370 T16 SNT/N0468F390 UN741 NELSO DCT NOCUT/N0472F400 UG853 TURED DCT 12N018W 10N018W/N0475F390 05N017W 00N016W/N0472F400 05S015W DCT MATHY |
| Aircraft | A332/H-SDE3GHIJ2J3J5M1RVWXY/LB2D1 |
Departure
| Time | N/A |
|---|---|
| Airport | RAF Brize Norton (EGVN) |
Arrival
| Time | 2026-05-07 15:51 |
|---|---|
| Airport | RAF Ascension Island (FHAW) |
| Time | Latitude | Longitude | Altitude | Speed | Heading |
|---|---|---|---|---|---|
| 2026-05-07 11:47 | 22.20324 | -17.90282 | 39021 ft | 472 kts | 186° |
| 2026-05-07 11:48 | 22.17072 | -17.90423 | 39021 ft | 472 kts | 186° |
| 2026-05-07 11:48 | 22.10507 | -17.90708 | 39021 ft | 472 kts | 186° |
| 2026-05-07 11:49 | 22.03949 | -17.90992 | 39020 ft | 471 kts | 186° |
| 2026-05-07 11:49 | 21.97458 | -17.91273 | 39021 ft | 470 kts | 186° |
| 2026-05-07 11:50 | 21.90926 | -17.91556 | 39018 ft | 470 kts | 186° |
| 2026-05-07 11:50 | 21.84392 | -17.91839 | 39015 ft | 470 kts | 186° |
| 2026-05-07 11:51 | 21.77859 | -17.92121 | 39000 ft | 470 kts | 187° |
| 2026-05-07 11:51 | 21.71338 | -17.92402 | 39015 ft | 468 kts | 187° |
| 2026-05-07 11:52 | 21.64831 | -17.92682 | 39012 ft | 468 kts | 187° |
| 2026-05-07 11:52 | 21.58326 | -17.92962 | 39009 ft | 468 kts | 187° |
| 2026-05-07 11:53 | 21.51828 | -17.93242 | 39009 ft | 468 kts | 187° |
| 2026-05-07 11:53 | 21.45325 | -17.93522 | 39000 ft | 467 kts | 187° |
| 2026-05-07 11:54 | 21.38789 | -17.93802 | 39010 ft | 467 kts | 187° |
| 2026-05-07 11:54 | 21.32302 | -17.94081 | 39009 ft | 466 kts | 187° |
| 2026-05-07 11:55 | 21.25814 | -17.94359 | 39010 ft | 466 kts | 187° |
| 2026-05-07 11:55 | 21.19332 | -17.94637 | 39011 ft | 466 kts | 187° |
| 2026-05-07 11:56 | 21.12850 | -17.94915 | 39000 ft | 466 kts | 186° |
| 2026-05-07 11:56 | 21.06382 | -17.95191 | 39010 ft | 464 kts | 186° |
| 2026-05-07 11:57 | 20.99974 | -17.95464 | 39009 ft | 464 kts | 186° |
| 2026-05-07 11:57 | 20.93483 | -17.95742 | 39004 ft | 464 kts | 186° |
| 2026-05-07 11:58 | 20.87037 | -17.96017 | 39005 ft | 464 kts | 186° |
| 2026-05-07 11:58 | 20.80584 | -17.96292 | 38993 ft | 463 kts | 187° |
| 2026-05-07 11:59 | 20.74182 | -17.96562 | 38998 ft | 458 kts | 187° |
| 2026-05-07 11:59 | 20.67836 | -17.96832 | 39009 ft | 457 kts | 187° |
| 2026-05-07 12:00 | 20.61480 | -17.97104 | 39008 ft | 457 kts | 187° |
| 2026-05-07 12:00 | 20.55173 | -17.97372 | 39010 ft | 457 kts | 187° |
| 2026-05-07 12:01 | 20.48825 | -17.97642 | 39000 ft | 457 kts | 187° |
| 2026-05-07 12:01 | 20.42474 | -17.97912 | 39003 ft | 457 kts | 187° |
| 2026-05-07 12:02 | 20.36119 | -17.98181 | 38999 ft | 457 kts | 187° |
| 2026-05-07 12:02 | 20.29768 | -17.98450 | 38996 ft | 457 kts | 187° |
| 2026-05-07 12:03 | 20.23416 | -17.98718 | 39006 ft | 457 kts | 187° |
| 2026-05-07 12:03 | 20.17069 | -17.98986 | 38990 ft | 456 kts | 188° |
| 2026-05-07 12:04 | 20.10780 | -17.99249 | 39004 ft | 450 kts | 188° |
| 2026-05-07 12:04 | 20.04539 | -17.99511 | 38998 ft | 448 kts | 188° |
| 2026-05-07 12:05 | 19.98308 | -17.99776 | 39000 ft | 448 kts | 188° |
| 2026-05-07 12:05 | 19.92070 | -18.00019 | 38996 ft | 449 kts | 187° |
| 2026-05-07 12:06 | 19.85804 | -18.00062 | 38978 ft | 450 kts | 187° |
| 2026-05-07 12:06 | 19.79563 | -18.00026 | 38999 ft | 447 kts | 187° |
| 2026-05-07 12:07 | 19.73361 | -18.00002 | 38997 ft | 445 kts | 187° |
| 2026-05-07 12:07 | 19.67172 | -17.99997 | 38999 ft | 445 kts | 188° |
| 2026-05-07 12:08 | 19.60974 | -17.99999 | 38997 ft | 445 kts | 188° |
| 2026-05-07 12:08 | 19.54789 | -18.00001 | 38988 ft | 445 kts | 188° |
| 2026-05-07 12:09 | 19.48648 | -18.00001 | 38997 ft | 443 kts | 188° |
| 2026-05-07 12:09 | 19.42491 | -17.99999 | 38993 ft | 441 kts | 189° |
| 2026-05-07 12:10 | 19.36350 | -18.00000 | 38990 ft | 441 kts | 189° |
| 2026-05-07 12:10 | 19.30251 | -18.00001 | 38990 ft | 441 kts | 189° |
| 2026-05-07 12:11 | 19.24114 | -18.00001 | 38994 ft | 441 kts | 189° |
| 2026-05-07 12:11 | 19.17972 | -18.00001 | 38990 ft | 440 kts | 188° |
| 2026-05-07 12:12 | 19.11859 | -17.99999 | 38992 ft | 439 kts | 188° |
| 2026-05-07 12:12 | 19.05754 | -18.00000 | 38991 ft | 439 kts | 188° |
| 2026-05-07 12:13 | 18.99647 | -18.00001 | 38987 ft | 439 kts | 188° |
| 2026-05-07 12:13 | 18.93535 | -18.00001 | 38987 ft | 439 kts | 188° |
| 2026-05-07 12:14 | 18.87430 | -18.00001 | 38980 ft | 438 kts | 189° |
| 2026-05-07 12:14 | 18.81335 | -17.99999 | 38988 ft | 437 kts | 189° |
| 2026-05-07 12:15 | 18.75262 | -17.99999 | 38986 ft | 436 kts | 189° |
| 2026-05-07 12:15 | 18.70175 | -18.00000 | 38988 ft | 436 kts | 189° |
| 2026-05-07 12:16 | 18.64148 | -18.00001 | 38987 ft | 436 kts | 189° |
| 2026-05-07 12:16 | 18.58076 | -18.00001 | 38985 ft | 436 kts | 189° |
| 2026-05-07 12:17 | 18.52005 | -18.00001 | 38987 ft | 436 kts | 189° |
| 2026-05-07 12:17 | 18.45930 | -18.00001 | 38988 ft | 436 kts | 189° |
| 2026-05-07 12:18 | 18.39857 | -18.00001 | 38985 ft | 436 kts | 189° |
| 2026-05-07 12:18 | 18.33784 | -18.00001 | 38985 ft | 436 kts | 189° |
| 2026-05-07 12:19 | 18.27714 | -18.00001 | 38985 ft | 436 kts | 189° |
| 2026-05-07 12:19 | 18.21638 | -18.00001 | 38976 ft | 436 kts | 188° |
| 2026-05-07 12:20 | 18.15589 | -18.00000 | 38982 ft | 434 kts | 188° |
| 2026-05-07 12:20 | 18.09561 | -18.00000 | 38982 ft | 433 kts | 188° |
| 2026-05-07 12:21 | 18.03522 | -18.00001 | 38985 ft | 433 kts | 188° |
| 2026-05-07 12:21 | 17.97494 | -18.00002 | 38985 ft | 433 kts | 188° |
| 2026-05-07 12:22 | 17.91461 | -18.00001 | 38959 ft | 433 kts | 189° |
| 2026-05-07 12:22 | 17.85416 | -18.00002 | 38984 ft | 435 kts | 188° |
| 2026-05-07 12:23 | 17.79367 | -18.00002 | 38981 ft | 435 kts | 188° |
| 2026-05-07 12:23 | 17.73351 | -18.00002 | 38981 ft | 435 kts | 188° |
| 2026-05-07 12:24 | 17.67296 | -18.00001 | 38981 ft | 435 kts | 188° |
| 2026-05-07 12:24 | 17.61196 | -18.00001 | 38986 ft | 435 kts | 188° |
| 2026-05-07 12:25 | 17.55137 | -18.00001 | 38979 ft | 436 kts | 189° |
| 2026-05-07 12:25 | 17.49049 | -18.00003 | 38984 ft | 438 kts | 189° |
| 2026-05-07 12:26 | 17.42953 | -18.00003 | 38982 ft | 438 kts | 189° |
| 2026-05-07 12:26 | 17.36858 | -18.00002 | 38983 ft | 438 kts | 189° |
| 2026-05-07 12:27 | 17.30800 | -18.00001 | 38982 ft | 438 kts | 189° |
| 2026-05-07 12:27 | 17.24700 | -18.00001 | 38982 ft | 438 kts | 189° |
| 2026-05-07 12:28 | 17.18600 | -18.00001 | 38982 ft | 438 kts | 189° |
| 2026-05-07 12:28 | 17.12501 | -18.00001 | 38982 ft | 438 kts | 189° |
| 2026-05-07 12:29 | 17.06419 | -18.00001 | 38982 ft | 438 kts | 189° |
| 2026-05-07 12:29 | 17.00320 | -18.00001 | 38983 ft | 438 kts | 189° |
| 2026-05-07 12:30 | 16.94220 | -18.00001 | 38985 ft | 438 kts | 189° |
| 2026-05-07 12:30 | 16.88112 | -18.00002 | 38978 ft | 440 kts | 189° |
| 2026-05-07 12:31 | 16.81970 | -18.00004 | 38977 ft | 442 kts | 188° |
| 2026-05-07 12:31 | 16.75811 | -18.00003 | 38978 ft | 443 kts | 188° |
| 2026-05-07 12:32 | 16.69653 | -18.00002 | 38985 ft | 442 kts | 188° |
| 2026-05-07 12:32 | 16.63496 | -18.00001 | 38976 ft | 442 kts | 188° |
| 2026-05-07 12:33 | 16.54259 | -18.00001 | 38972 ft | 443 kts | 188° |
| 2026-05-07 12:33 | 16.48095 | -18.00001 | 38976 ft | 443 kts | 188° |
| 2026-05-07 12:34 | 16.41932 | -18.00001 | 38973 ft | 443 kts | 188° |
| 2026-05-07 12:34 | 16.35773 | -18.00001 | 38973 ft | 443 kts | 188° |
| 2026-05-07 12:35 | 16.29610 | -18.00001 | 38978 ft | 443 kts | 188° |
| 2026-05-07 12:35 | 16.23485 | -18.00001 | 38969 ft | 443 kts | 188° |
| 2026-05-07 12:36 | 16.17318 | -18.00002 | 38974 ft | 444 kts | 188° |
| 2026-05-07 12:36 | 16.11141 | -18.00002 | 38974 ft | 444 kts | 188° |
| 2026-05-07 12:37 | 16.04971 | -18.00001 | 38974 ft | 444 kts | 188° |
| 2026-05-07 12:37 | 15.98792 | -18.00001 | 38974 ft | 444 kts | 188° |
| 2026-05-07 12:38 | 15.92616 | -18.00001 | 38974 ft | 444 kts | 188° |
| 2026-05-07 12:38 | 15.86441 | -18.00002 | 38972 ft | 444 kts | 188° |
| 2026-05-07 12:39 | 15.80257 | -18.00001 | 38973 ft | 444 kts | 188° |
| 2026-05-07 12:39 | 15.74078 | -18.00001 | 38975 ft | 444 kts | 188° |
| 2026-05-07 12:40 | 15.67897 | -18.00001 | 38966 ft | 444 kts | 188° |
| 2026-05-07 12:40 | 15.61724 | -18.00001 | 38974 ft | 444 kts | 188° |
| 2026-05-07 12:41 | 15.55534 | -18.00001 | 38968 ft | 444 kts | 187° |
| 2026-05-07 12:41 | 15.49362 | -18.00001 | 38969 ft | 444 kts | 187° |
| 2026-05-07 12:42 | 15.43191 | -18.00001 | 38966 ft | 444 kts | 187° |
| 2026-05-07 12:42 | 15.37018 | -18.00001 | 38975 ft | 443 kts | 187° |
| 2026-05-07 12:43 | 15.30846 | -18.00001 | 38968 ft | 444 kts | 187° |
| 2026-05-07 12:43 | 15.24671 | -18.00002 | 38960 ft | 444 kts | 187° |
| 2026-05-07 12:44 | 15.18503 | -18.00001 | 38969 ft | 443 kts | 187° |
| 2026-05-07 12:44 | 15.12337 | -18.00001 | 38965 ft | 443 kts | 187° |
| 2026-05-07 12:45 | 15.06168 | -18.00001 | 38965 ft | 443 kts | 187° |
| 2026-05-07 12:45 | 14.99997 | -18.00001 | 38966 ft | 443 kts | 187° |
| 2026-05-07 12:46 | 14.93877 | -18.00001 | 38965 ft | 443 kts | 187° |
| 2026-05-07 12:46 | 14.87665 | -18.00002 | 38960 ft | 444 kts | 187° |
| 2026-05-07 12:47 | 14.81478 | -18.00002 | 38962 ft | 445 kts | 187° |
| 2026-05-07 12:47 | 14.75329 | -18.00002 | 38959 ft | 445 kts | 187° |
| 2026-05-07 12:48 | 14.69135 | -18.00001 | 38966 ft | 445 kts | 187° |
| 2026-05-07 12:48 | 14.62944 | -18.00001 | 38965 ft | 445 kts | 187° |
| 2026-05-07 12:49 | 14.56752 | -18.00001 | 38944 ft | 445 kts | 187° |
| 2026-05-07 12:49 | 14.50555 | -18.00002 | 38960 ft | 446 kts | 187° |
| 2026-05-07 12:50 | 14.44354 | -18.00002 | 38956 ft | 446 kts | 187° |
| 2026-05-07 12:50 | 14.38153 | -18.00001 | 38959 ft | 446 kts | 187° |
| 2026-05-07 12:51 | 14.31950 | -18.00001 | 38961 ft | 446 kts | 187° |
| 2026-05-07 12:51 | 14.25744 | -18.00001 | 38958 ft | 446 kts | 187° |
| 2026-05-07 12:52 | 14.19541 | -18.00001 | 38953 ft | 446 kts | 186° |
| 2026-05-07 12:52 | 14.13331 | -18.00002 | 38955 ft | 447 kts | 186° |
| 2026-05-07 12:53 | 14.07118 | -18.00002 | 38952 ft | 446 kts | 186° |
| 2026-05-07 12:53 | 14.00940 | -18.00001 | 38952 ft | 446 kts | 186° |
| 2026-05-07 12:54 | 13.94727 | -18.00001 | 38952 ft | 446 kts | 186° |
| 2026-05-07 12:54 | 13.88516 | -18.00001 | 38954 ft | 446 kts | 186° |
| 2026-05-07 12:55 | 13.82301 | -18.00001 | 38955 ft | 446 kts | 186° |
| 2026-05-07 12:55 | 13.76104 | -18.00001 | 38955 ft | 446 kts | 186° |
| 2026-05-07 12:56 | 13.69890 | -18.00001 | 38952 ft | 447 kts | 186° |
| 2026-05-07 12:56 | 13.63672 | -18.00001 | 38955 ft | 447 kts | 186° |
| 2026-05-07 12:57 | 13.57457 | -18.00001 | 38955 ft | 446 kts | 186° |
| 2026-05-07 12:57 | 13.51247 | -18.00001 | 38955 ft | 446 kts | 186° |
| 2026-05-07 12:58 | 13.45041 | -18.00001 | 38957 ft | 446 kts | 186° |
| 2026-05-07 12:58 | 13.38831 | -18.00001 | 38957 ft | 446 kts | 186° |
| 2026-05-07 12:59 | 13.33676 | -18.00001 | 38957 ft | 446 kts | 186° |
| 2026-05-07 12:59 | 13.27474 | -18.00001 | 38957 ft | 446 kts | 186° |
| 2026-05-07 13:00 | 13.21272 | -18.00002 | 38957 ft | 446 kts | 186° |
| 2026-05-07 13:00 | 13.15058 | -18.00004 | 38958 ft | 448 kts | 186° |
| 2026-05-07 13:01 | 13.08805 | -18.00004 | 38952 ft | 450 kts | 186° |
| 2026-05-07 13:01 | 13.02540 | -18.00003 | 38952 ft | 450 kts | 186° |
| 2026-05-07 13:02 | 12.96266 | -18.00001 | 38952 ft | 450 kts | 186° |
| 2026-05-07 13:02 | 12.90008 | -18.00001 | 38952 ft | 450 kts | 186° |
| 2026-05-07 13:03 | 12.83744 | -18.00001 | 38948 ft | 450 kts | 186° |
| 2026-05-07 13:03 | 12.77466 | -18.00002 | 38952 ft | 452 kts | 186° |
| 2026-05-07 13:04 | 12.71173 | -18.00002 | 38953 ft | 452 kts | 186° |
| 2026-05-07 13:04 | 12.64883 | -18.00002 | 38953 ft | 452 kts | 186° |
| 2026-05-07 13:05 | 12.58591 | -18.00001 | 38953 ft | 452 kts | 186° |
| 2026-05-07 13:05 | 12.52295 | -18.00001 | 38953 ft | 452 kts | 186° |
| 2026-05-07 13:06 | 12.45995 | -18.00002 | 38955 ft | 454 kts | 186° |
| 2026-05-07 13:06 | 12.39703 | -18.00003 | 38950 ft | 456 kts | 186° |
| 2026-05-07 13:07 | 12.33362 | -18.00002 | 38952 ft | 456 kts | 186° |
| 2026-05-07 13:07 | 12.27020 | -18.00001 | 38949 ft | 456 kts | 186° |
| 2026-05-07 13:08 | 12.20679 | -18.00001 | 38949 ft | 456 kts | 186° |
| 2026-05-07 13:08 | 12.14336 | -18.00001 | 38953 ft | 456 kts | 186° |
| 2026-05-07 13:09 | 12.07965 | -18.00003 | 38949 ft | 459 kts | 186° |
| 2026-05-07 13:09 | 12.01572 | -18.00003 | 38949 ft | 460 kts | 186° |
| 2026-05-07 13:10 | 11.95171 | -18.00002 | 38953 ft | 460 kts | 186° |
| 2026-05-07 13:10 | 11.88774 | -18.00001 | 38949 ft | 460 kts | 186° |
| 2026-05-07 13:11 | 11.82378 | -18.00001 | 38953 ft | 460 kts | 186° |
| 2026-05-07 13:11 | 11.75979 | -18.00001 | 38952 ft | 460 kts | 185° |
| 2026-05-07 13:12 | 11.69569 | -18.00002 | 38949 ft | 461 kts | 185° |
| 2026-05-07 13:12 | 11.63155 | -18.00001 | 38949 ft | 461 kts | 185° |
| 2026-05-07 13:13 | 11.56745 | -18.00001 | 38952 ft | 461 kts | 185° |
| 2026-05-07 13:13 | 11.50331 | -18.00001 | 38952 ft | 461 kts | 185° |
| 2026-05-07 13:14 | 11.43905 | -18.00003 | 38947 ft | 465 kts | 185° |
| 2026-05-07 13:14 | 11.37417 | -18.00004 | 38949 ft | 467 kts | 185° |
| 2026-05-07 13:15 | 11.30962 | -18.00003 | 38952 ft | 467 kts | 185° |
| 2026-05-07 13:15 | 11.24464 | -18.00002 | 38952 ft | 467 kts | 185° |
| 2026-05-07 13:16 | 11.17981 | -18.00001 | 38950 ft | 467 kts | 185° |
| 2026-05-07 13:16 | 11.11487 | -18.00001 | 38940 ft | 467 kts | 185° |
| 2026-05-07 13:17 | 11.04989 | -18.00001 | 38949 ft | 467 kts | 185° |
| 2026-05-07 13:17 | 10.98489 | -18.00001 | 38950 ft | 467 kts | 185° |
| 2026-05-07 13:18 | 10.91995 | -18.00001 | 38950 ft | 467 kts | 185° |
| 2026-05-07 13:18 | 10.85501 | -18.00001 | 38949 ft | 467 kts | 185° |
| 2026-05-07 13:19 | 10.79004 | -18.00001 | 38947 ft | 467 kts | 185° |
| 2026-05-07 13:19 | 10.72511 | -18.00002 | 38945 ft | 467 kts | 184° |
| 2026-05-07 13:20 | 10.66020 | -18.00001 | 38946 ft | 467 kts | 184° |
| 2026-05-07 13:20 | 10.59522 | -18.00001 | 38946 ft | 467 kts | 184° |
| 2026-05-07 13:21 | 10.53029 | -18.00001 | 38947 ft | 467 kts | 184° |
| 2026-05-07 13:21 | 10.46534 | -18.00001 | 38947 ft | 467 kts | 184° |
| 2026-05-07 13:22 | 10.40041 | -18.00001 | 38947 ft | 467 kts | 184° |
| 2026-05-07 13:22 | 10.33541 | -18.00001 | 38946 ft | 467 kts | 184° |
| 2026-05-07 13:23 | 10.27043 | -18.00001 | 38946 ft | 467 kts | 184° |
| 2026-05-07 13:23 | 10.20592 | -18.00001 | 38944 ft | 467 kts | 184° |
| 2026-05-07 13:24 | 10.14100 | -18.00001 | 38945 ft | 467 kts | 184° |
| 2026-05-07 13:24 | 10.07605 | -18.00001 | 38944 ft | 467 kts | 184° |
| 2026-05-07 13:25 | 10.01105 | -18.00001 | 38945 ft | 467 kts | 183° |
| 2026-05-07 13:25 | 9.94603 | -17.99272 | 38944 ft | 472 kts | 174° |
| 2026-05-07 13:26 | 9.88134 | -17.98029 | 38945 ft | 474 kts | 173° |
| 2026-05-07 13:26 | 9.81672 | -17.96688 | 38944 ft | 474 kts | 172° |
| 2026-05-07 13:27 | 9.75210 | -17.95349 | 38940 ft | 474 kts | 173° |
| 2026-05-07 13:27 | 9.68746 | -17.94028 | 38940 ft | 474 kts | 172° |
| 2026-05-07 13:28 | 9.62258 | -17.92712 | 38944 ft | 476 kts | 173° |
| 2026-05-07 13:28 | 9.55764 | -17.91396 | 38943 ft | 476 kts | 173° |
| 2026-05-07 13:29 | 9.49269 | -17.90079 | 38941 ft | 476 kts | 173° |
| 2026-05-07 13:29 | 9.42777 | -17.88763 | 38942 ft | 476 kts | 173° |
| 2026-05-07 13:30 | 9.36283 | -17.87447 | 38938 ft | 476 kts | 172° |
| 2026-05-07 13:30 | 9.29788 | -17.86131 | 38942 ft | 476 kts | 172° |
| 2026-05-07 13:31 | 9.23297 | -17.84817 | 38939 ft | 476 kts | 172° |
| 2026-05-07 13:31 | 9.16846 | -17.83511 | 38936 ft | 476 kts | 172° |
| 2026-05-07 13:32 | 9.10351 | -17.82197 | 38935 ft | 476 kts | 172° |
| 2026-05-07 13:32 | 9.03860 | -17.80884 | 38934 ft | 476 kts | 172° |
| 2026-05-07 13:33 | 8.97371 | -17.79572 | 38929 ft | 476 kts | 172° |
| 2026-05-07 13:33 | 8.90882 | -17.78261 | 38927 ft | 475 kts | 172° |
| 2026-05-07 13:34 | 8.81155 | -17.76296 | 38934 ft | 475 kts | 172° |
| 2026-05-07 13:35 | 8.74671 | -17.74986 | 38933 ft | 475 kts | 172° |
| 2026-05-07 13:35 | 8.68188 | -17.73678 | 38932 ft | 475 kts | 172° |
| 2026-05-07 13:36 | 8.61693 | -17.72368 | 38923 ft | 476 kts | 172° |
| 2026-05-07 13:36 | 8.55183 | -17.71055 | 38928 ft | 477 kts | 172° |
| 2026-05-07 13:37 | 8.48674 | -17.69742 | 38932 ft | 477 kts | 172° |
| 2026-05-07 13:37 | 8.42159 | -17.68428 | 38927 ft | 477 kts | 172° |
| 2026-05-07 13:38 | 8.35650 | -17.67117 | 38931 ft | 477 kts | 172° |
| 2026-05-07 13:38 | 8.29138 | -17.65805 | 38928 ft | 477 kts | 171° |
| 2026-05-07 13:39 | 8.22628 | -17.64494 | 38925 ft | 477 kts | 171° |
| 2026-05-07 13:39 | 8.16110 | -17.63182 | 38933 ft | 477 kts | 171° |
| 2026-05-07 13:40 | 8.09602 | -17.61872 | 38921 ft | 477 kts | 171° |
| 2026-05-07 13:40 | 8.03086 | -17.60561 | 38924 ft | 477 kts | 171° |
| 2026-05-07 13:41 | 7.96578 | -17.59253 | 38934 ft | 477 kts | 171° |
| 2026-05-07 13:41 | 7.90160 | -17.57963 | 38932 ft | 477 kts | 171° |
| 2026-05-07 13:42 | 7.83644 | -17.56653 | 38916 ft | 478 kts | 171° |
| 2026-05-07 13:42 | 7.77125 | -17.55343 | 38926 ft | 478 kts | 171° |
| 2026-05-07 13:43 | 7.70606 | -17.54034 | 38931 ft | 478 kts | 171° |
| 2026-05-07 13:43 | 7.64089 | -17.52725 | 38930 ft | 478 kts | 171° |
| 2026-05-07 13:44 | 7.57569 | -17.51417 | 38917 ft | 478 kts | 171° |
| 2026-05-07 13:44 | 7.51042 | -17.50108 | 38923 ft | 479 kts | 171° |
| 2026-05-07 13:45 | 7.45609 | -17.49017 | 38928 ft | 479 kts | 171° |
| 2026-05-07 13:45 | 7.39420 | -17.47776 | 38914 ft | 479 kts | 171° |
| 2026-05-07 13:46 | 7.32881 | -17.46465 | 38917 ft | 479 kts | 171° |
| 2026-05-07 13:46 | 7.26347 | -17.45155 | 38927 ft | 479 kts | 171° |
| 2026-05-07 13:47 | 7.19807 | -17.43845 | 38917 ft | 479 kts | 170° |
| 2026-05-07 13:47 | 7.13263 | -17.42534 | 38923 ft | 480 kts | 170° |
| 2026-05-07 13:48 | 7.06718 | -17.41224 | 38917 ft | 480 kts | 170° |
| 2026-05-07 13:48 | 7.00171 | -17.39913 | 38924 ft | 480 kts | 170° |
| 2026-05-07 13:49 | 6.93626 | -17.38603 | 38920 ft | 480 kts | 171° |
| 2026-05-07 13:49 | 6.87071 | -17.37292 | 38926 ft | 480 kts | 171° |
| 2026-05-07 13:50 | 6.80519 | -17.35981 | 38925 ft | 480 kts | 171° |
| 2026-05-07 13:50 | 6.74007 | -17.34679 | 38923 ft | 480 kts | 171° |
| 2026-05-07 13:51 | 6.67454 | -17.33369 | 38921 ft | 480 kts | 171° |
| 2026-05-07 13:51 | 6.60897 | -17.32058 | 38923 ft | 480 kts | 171° |
| 2026-05-07 13:52 | 6.54346 | -17.30749 | 38914 ft | 480 kts | 171° |
| 2026-05-07 13:52 | 6.47790 | -17.29440 | 38920 ft | 480 kts | 170° |
| 2026-05-07 13:53 | 6.41234 | -17.28131 | 38917 ft | 480 kts | 170° |
| 2026-05-07 13:53 | 6.34677 | -17.26822 | 38925 ft | 480 kts | 170° |
| 2026-05-07 13:54 | 6.28120 | -17.25513 | 38917 ft | 480 kts | 170° |
| 2026-05-07 13:54 | 6.21565 | -17.24205 | 38917 ft | 481 kts | 170° |
| 2026-05-07 13:55 | 6.15003 | -17.22896 | 38917 ft | 481 kts | 169° |
| 2026-05-07 13:55 | 6.08441 | -17.21587 | 38922 ft | 481 kts | 169° |
| 2026-05-07 13:56 | 6.01881 | -17.20279 | 38917 ft | 481 kts | 169° |
| 2026-05-07 13:56 | 5.95318 | -17.18971 | 38927 ft | 481 kts | 169° |
| 2026-05-07 13:57 | 5.88751 | -17.17662 | 38925 ft | 481 kts | 169° |
| 2026-05-07 13:57 | 5.82186 | -17.16354 | 38920 ft | 481 kts | 169° |
| 2026-05-07 13:58 | 5.75665 | -17.15055 | 38914 ft | 481 kts | 169° |
| 2026-05-07 13:58 | 5.69097 | -17.13747 | 38920 ft | 481 kts | 169° |
| 2026-05-07 13:59 | 5.62532 | -17.12440 | 38921 ft | 481 kts | 169° |
| 2026-05-07 13:59 | 5.55962 | -17.11132 | 38927 ft | 481 kts | 169° |
| 2026-05-07 14:00 | 5.49386 | -17.09823 | 38914 ft | 481 kts | 169° |
| 2026-05-07 14:00 | 5.42818 | -17.08517 | 38932 ft | 482 kts | 169° |
| 2026-05-07 14:01 | 5.36242 | -17.07209 | 38927 ft | 482 kts | 169° |
| 2026-05-07 14:01 | 5.29659 | -17.05899 | 38927 ft | 482 kts | 169° |
| 2026-05-07 14:02 | 5.23081 | -17.04591 | 38930 ft | 482 kts | 169° |
| 2026-05-07 14:02 | 5.16493 | -17.03282 | 38922 ft | 483 kts | 169° |
| 2026-05-07 14:03 | 5.09895 | -17.01970 | 38925 ft | 483 kts | 169° |
| 2026-05-07 14:03 | 5.03295 | -17.00659 | 38923 ft | 483 kts | 169° |
| 2026-05-07 14:04 | 4.96697 | -16.99343 | 38928 ft | 484 kts | 168° |
| 2026-05-07 14:04 | 4.90098 | -16.98017 | 38928 ft | 484 kts | 168° |
| 2026-05-07 14:05 | 4.83499 | -16.96689 | 38923 ft | 484 kts | 168° |
| 2026-05-07 14:05 | 4.76949 | -16.95372 | 38925 ft | 484 kts | 168° |
| 2026-05-07 14:06 | 4.70349 | -16.94046 | 38922 ft | 483 kts | 168° |
| 2026-05-07 14:06 | 4.63754 | -16.92721 | 38911 ft | 483 kts | 168° |
| 2026-05-07 14:07 | 4.57161 | -16.91397 | 38922 ft | 483 kts | 168° |
| 2026-05-07 14:07 | 4.50572 | -16.90074 | 38920 ft | 483 kts | 168° |
| 2026-05-07 14:08 | 4.43979 | -16.88751 | 38924 ft | 483 kts | 168° |
| 2026-05-07 14:08 | 4.37385 | -16.87428 | 38916 ft | 483 kts | 168° |
| 2026-05-07 14:09 | 4.30793 | -16.86105 | 38922 ft | 482 kts | 168° |
| 2026-05-07 14:09 | 4.24208 | -16.84784 | 38921 ft | 483 kts | 168° |
| 2026-05-07 14:10 | 4.17619 | -16.83462 | 38910 ft | 483 kts | 168° |
| 2026-05-07 14:10 | 4.11037 | -16.82142 | 38916 ft | 483 kts | 168° |
| 2026-05-07 14:11 | 4.04447 | -16.80821 | 38926 ft | 483 kts | 168° |
| 2026-05-07 14:11 | 3.97860 | -16.79500 | 38915 ft | 482 kts | 168° |
| 2026-05-07 14:12 | 3.91292 | -16.78184 | 38922 ft | 481 kts | 168° |
| 2026-05-07 14:12 | 3.84724 | -16.76867 | 38912 ft | 481 kts | 168° |
| 2026-05-07 14:13 | 3.78163 | -16.75552 | 38924 ft | 481 kts | 168° |
| 2026-05-07 14:13 | 3.71594 | -16.74236 | 38913 ft | 481 kts | 168° |
| 2026-05-07 14:14 | 3.65028 | -16.72921 | 38915 ft | 481 kts | 168° |
| 2026-05-07 14:14 | 3.58518 | -16.71617 | 38919 ft | 480 kts | 168° |
| 2026-05-07 14:15 | 3.51973 | -16.70307 | 38914 ft | 479 kts | 168° |
| 2026-05-07 14:15 | 3.45382 | -16.68987 | 38930 ft | 481 kts | 168° |
| 2026-05-07 14:16 | 3.38813 | -16.67671 | 38913 ft | 482 kts | 168° |
| 2026-05-07 14:16 | 3.32239 | -16.66355 | 38922 ft | 482 kts | 168° |
| 2026-05-07 14:17 | 3.25667 | -16.65040 | 38918 ft | 482 kts | 168° |
| 2026-05-07 14:17 | 3.19138 | -16.63733 | 38921 ft | 482 kts | 168° |
| 2026-05-07 14:18 | 3.12568 | -16.62419 | 38916 ft | 482 kts | 168° |
| 2026-05-07 14:18 | 3.05991 | -16.61103 | 38919 ft | 482 kts | 168° |
| 2026-05-07 14:19 | 2.99421 | -16.59788 | 38933 ft | 482 kts | 168° |
| 2026-05-07 14:19 | 2.92847 | -16.58474 | 38920 ft | 482 kts | 168° |
| 2026-05-07 14:20 | 2.86275 | -16.57159 | 38922 ft | 481 kts | 167° |
| 2026-05-07 14:20 | 2.79710 | -16.55846 | 38922 ft | 481 kts | 167° |
| 2026-05-07 14:21 | 2.73148 | -16.54534 | 38927 ft | 481 kts | 167° |
| 2026-05-07 14:21 | 2.66586 | -16.53222 | 38923 ft | 481 kts | 167° |
| 2026-05-07 14:22 | 2.60022 | -16.51910 | 38925 ft | 481 kts | 167° |
| 2026-05-07 14:22 | 2.53453 | -16.50597 | 38925 ft | 481 kts | 167° |
| 2026-05-07 14:23 | 2.46901 | -16.49288 | 38923 ft | 479 kts | 167° |
| 2026-05-07 14:23 | 2.40365 | -16.47982 | 38921 ft | 479 kts | 167° |
| 2026-05-07 14:24 | 2.33830 | -16.46675 | 38927 ft | 479 kts | 167° |
| 2026-05-07 14:24 | 2.27299 | -16.45370 | 38923 ft | 479 kts | 167° |
| 2026-05-07 14:25 | 2.20759 | -16.44064 | 38921 ft | 479 kts | 167° |
| 2026-05-07 14:25 | 2.14225 | -16.42758 | 38923 ft | 479 kts | 167° |
| 2026-05-07 14:26 | 2.07679 | -16.41451 | 38922 ft | 479 kts | 167° |
| 2026-05-07 14:26 | 2.01182 | -16.40153 | 38924 ft | 479 kts | 167° |
| 2026-05-07 14:27 | 1.94641 | -16.38847 | 38924 ft | 479 kts | 167° |
| 2026-05-07 14:27 | 1.88071 | -16.37535 | 38925 ft | 479 kts | 167° |
| 2026-05-07 14:28 | 1.81529 | -16.36228 | 38925 ft | 479 kts | 167° |
| 2026-05-07 14:28 | 1.74999 | -16.34925 | 38923 ft | 477 kts | 167° |
| 2026-05-07 14:29 | 1.68503 | -16.33627 | 38925 ft | 474 kts | 167° |
| 2026-05-07 14:29 | 1.62043 | -16.32338 | 38925 ft | 473 kts | 167° |
| 2026-05-07 14:30 | 1.55591 | -16.31049 | 38924 ft | 473 kts | 167° |
| 2026-05-07 14:30 | 1.49178 | -16.29769 | 38926 ft | 473 kts | 167° |
| 2026-05-07 14:31 | 1.42673 | -16.28471 | 38924 ft | 475 kts | 166° |
| 2026-05-07 14:31 | 1.36162 | -16.27170 | 38921 ft | 479 kts | 166° |
| 2026-05-07 14:32 | 1.29670 | -16.25874 | 38925 ft | 479 kts | 166° |
| 2026-05-07 14:32 | 1.23138 | -16.24571 | 38924 ft | 479 kts | 166° |
| 2026-05-07 14:33 | 1.16611 | -16.23269 | 38924 ft | 479 kts | 166° |
| 2026-05-07 14:33 | 1.10073 | -16.21964 | 38926 ft | 479 kts | 166° |
| 2026-05-07 14:34 | 1.04601 | -16.20872 | 38927 ft | 478 kts | 166° |
| 2026-05-07 14:34 | 0.98084 | -16.19572 | 38925 ft | 478 kts | 166° |
| 2026-05-07 14:35 | 0.91567 | -16.18272 | 38925 ft | 477 kts | 166° |
| 2026-05-07 14:35 | 0.85048 | -16.16971 | 38925 ft | 478 kts | 166° |
| 2026-05-07 14:36 | 0.78522 | -16.15669 | 38922 ft | 478 kts | 166° |
| 2026-05-07 14:36 | 0.72048 | -16.14377 | 38922 ft | 478 kts | 166° |
| 2026-05-07 14:37 | 0.65524 | -16.13075 | 38922 ft | 478 kts | 166° |
| 2026-05-07 14:37 | 0.55732 | -16.11122 | 38925 ft | 478 kts | 166° |
| 2026-05-07 14:38 | 0.49202 | -16.09819 | 38923 ft | 478 kts | 166° |
| 2026-05-07 14:38 | 0.42671 | -16.08516 | 38921 ft | 478 kts | 166° |
| 2026-05-07 14:39 | 0.36139 | -16.07213 | 38922 ft | 479 kts | 166° |
| 2026-05-07 14:39 | 0.29613 | -16.05911 | 38922 ft | 478 kts | 167° |
| 2026-05-07 14:40 | 0.23098 | -16.04612 | 38922 ft | 478 kts | 167° |
| 2026-05-07 14:40 | 0.16578 | -16.03311 | 38923 ft | 477 kts | 167° |
| 2026-05-07 14:41 | 0.10064 | -16.02012 | 38922 ft | 478 kts | 167° |
| 2026-05-07 14:41 | 0.03544 | -16.00711 | 38922 ft | 478 kts | 167° |
| 2026-05-07 14:42 | -0.02975 | -15.99410 | 38921 ft | 478 kts | 167° |
| 2026-05-07 14:42 | -0.09504 | -15.98107 | 38922 ft | 479 kts | 167° |
| 2026-05-07 14:43 | -0.16050 | -15.96802 | 38922 ft | 479 kts | 167° |
| 2026-05-07 14:43 | -0.22542 | -15.95507 | 38922 ft | 479 kts | 167° |
| 2026-05-07 14:44 | -0.29085 | -15.94202 | 38919 ft | 479 kts | 167° |
| 2026-05-07 14:44 | -0.35622 | -15.92898 | 38919 ft | 479 kts | 167° |
| 2026-05-07 14:45 | -0.42160 | -15.91594 | 38919 ft | 479 kts | 167° |
| 2026-05-07 14:45 | -0.48700 | -15.90289 | 38917 ft | 479 kts | 167° |
| 2026-05-07 14:46 | -0.55239 | -15.88984 | 38917 ft | 479 kts | 167° |
| 2026-05-07 14:46 | -0.61780 | -15.87679 | 38916 ft | 479 kts | 167° |
| 2026-05-07 14:47 | -0.68320 | -15.86375 | 38916 ft | 479 kts | 167° |
| 2026-05-07 14:47 | -0.74857 | -15.85070 | 38916 ft | 479 kts | 167° |
| 2026-05-07 14:48 | -0.81414 | -15.83762 | 38914 ft | 481 kts | 167° |
| 2026-05-07 14:48 | -0.87987 | -15.82450 | 38914 ft | 482 kts | 167° |
| 2026-05-07 14:49 | -0.94560 | -15.81139 | 38916 ft | 482 kts | 167° |
| 2026-05-07 14:49 | -1.01131 | -15.79828 | 38916 ft | 482 kts | 167° |
| 2026-05-07 14:50 | -1.07702 | -15.78517 | 38914 ft | 482 kts | 167° |
| 2026-05-07 14:50 | -1.14276 | -15.77205 | 38914 ft | 482 kts | 167° |
| 2026-05-07 14:51 | -1.20846 | -15.75894 | 38911 ft | 481 kts | 167° |
| 2026-05-07 14:51 | -1.27414 | -15.74583 | 38911 ft | 481 kts | 167° |
| 2026-05-07 14:52 | -1.33986 | -15.73271 | 38911 ft | 481 kts | 167° |
| 2026-05-07 14:52 | -1.40555 | -15.71960 | 38911 ft | 481 kts | 167° |
| 2026-05-07 14:53 | -1.47120 | -15.70650 | 38906 ft | 481 kts | 167° |
| 2026-05-07 14:53 | -1.53660 | -15.69344 | 38909 ft | 484 kts | 167° |
| 2026-05-07 14:54 | -1.60278 | -15.68022 | 38911 ft | 485 kts | 167° |
| 2026-05-07 14:54 | -1.66897 | -15.66701 | 38911 ft | 485 kts | 167° |
| 2026-05-07 14:55 | -1.73516 | -15.65380 | 38912 ft | 485 kts | 167° |
| 2026-05-07 14:55 | -1.80135 | -15.64058 | 38904 ft | 485 kts | 167° |
| 2026-05-07 14:56 | -1.86757 | -15.62736 | 38906 ft | 486 kts | 167° |
| 2026-05-07 14:56 | -1.93385 | -15.61412 | 38905 ft | 486 kts | 167° |
| 2026-05-07 14:57 | -2.00017 | -15.60088 | 38910 ft | 486 kts | 167° |
| 2026-05-07 14:57 | -2.06648 | -15.58763 | 38905 ft | 486 kts | 167° |
| 2026-05-07 14:58 | -2.13286 | -15.57437 | 38903 ft | 486 kts | 167° |
| 2026-05-07 14:58 | -2.19915 | -15.56113 | 38902 ft | 486 kts | 167° |
| 2026-05-07 14:59 | -2.26544 | -15.54788 | 38903 ft | 486 kts | 167° |
| 2026-05-07 14:59 | -2.33188 | -15.53461 | 38903 ft | 487 kts | 167° |
| 2026-05-07 15:00 | -2.39838 | -15.52132 | 38905 ft | 487 kts | 167° |
| 2026-05-07 15:00 | -2.46482 | -15.50804 | 38907 ft | 487 kts | 167° |
| 2026-05-07 15:01 | -2.53129 | -15.49476 | 38904 ft | 487 kts | 167° |
| 2026-05-07 15:01 | -2.59779 | -15.48146 | 38901 ft | 487 kts | 167° |
| 2026-05-07 15:02 | -2.66439 | -15.46815 | 38898 ft | 489 kts | 167° |
| 2026-05-07 15:02 | -2.73118 | -15.45479 | 38899 ft | 490 kts | 167° |
| 2026-05-07 15:03 | -2.79807 | -15.44142 | 38896 ft | 489 kts | 167° |
| 2026-05-07 15:03 | -2.86476 | -15.42809 | 38900 ft | 489 kts | 168° |
| 2026-05-07 15:04 | -2.93157 | -15.41472 | 38893 ft | 490 kts | 168° |
| 2026-05-07 15:04 | -2.99826 | -15.40138 | 38895 ft | 489 kts | 168° |
| 2026-05-07 15:05 | -3.06474 | -15.38808 | 38895 ft | 491 kts | 168° |
| 2026-05-07 15:05 | -3.13183 | -15.37466 | 38898 ft | 492 kts | 168° |
| 2026-05-07 15:06 | -3.19875 | -15.36127 | 38902 ft | 491 kts | 168° |
| 2026-05-07 15:06 | -3.26588 | -15.34784 | 38901 ft | 492 kts | 168° |
| 2026-05-07 15:07 | -3.33296 | -15.33440 | 38899 ft | 491 kts | 168° |
| 2026-05-07 15:07 | -3.39985 | -15.32101 | 38898 ft | 491 kts | 168° |
| 2026-05-07 15:08 | -3.46701 | -15.30757 | 38898 ft | 492 kts | 168° |
| 2026-05-07 15:08 | -3.53414 | -15.29413 | 38897 ft | 491 kts | 168° |
| 2026-05-07 15:09 | -3.60115 | -15.28071 | 38900 ft | 491 kts | 168° |
| 2026-05-07 15:09 | -3.66837 | -15.26725 | 38898 ft | 493 kts | 168° |
| 2026-05-07 15:10 | -3.73549 | -15.25379 | 38899 ft | 491 kts | 169° |
| 2026-05-07 15:10 | -3.80252 | -15.24036 | 38901 ft | 492 kts | 169° |
| 2026-05-07 15:11 | -3.86981 | -15.22688 | 38902 ft | 492 kts | 169° |
| 2026-05-07 15:11 | -3.93667 | -15.21348 | 38899 ft | 491 kts | 169° |
| 2026-05-07 15:12 | -4.00369 | -15.20005 | 38901 ft | 492 kts | 169° |
| 2026-05-07 15:12 | -4.07090 | -15.18657 | 38900 ft | 492 kts | 169° |
| 2026-05-07 15:13 | -4.13744 | -15.17323 | 38899 ft | 491 kts | 169° |
| 2026-05-07 15:13 | -4.20455 | -15.15977 | 38898 ft | 493 kts | 169° |
| 2026-05-07 15:14 | -4.27175 | -15.14629 | 38898 ft | 492 kts | 169° |
| 2026-05-07 15:14 | -4.33881 | -15.13283 | 38898 ft | 492 kts | 169° |
| 2026-05-07 15:15 | -4.40605 | -15.11934 | 38896 ft | 493 kts | 169° |
| 2026-05-07 15:15 | -4.47316 | -15.10587 | 38901 ft | 491 kts | 169° |
| 2026-05-07 15:16 | -4.54015 | -15.09242 | 38898 ft | 492 kts | 169° |
| 2026-05-07 15:16 | -4.60727 | -15.07895 | 38898 ft | 492 kts | 169° |
| 2026-05-07 15:17 | -4.67424 | -15.06550 | 38903 ft | 491 kts | 169° |
| 2026-05-07 15:17 | -4.74130 | -15.05203 | 38899 ft | 492 kts | 169° |
| 2026-05-07 15:18 | -4.80847 | -15.03853 | 38899 ft | 492 kts | 169° |
| 2026-05-07 15:18 | -4.87510 | -15.02515 | 38899 ft | 492 kts | 169° |
| 2026-05-07 15:19 | -4.94239 | -15.01162 | 38899 ft | 493 kts | 169° |
| 2026-05-07 15:19 | -5.00976 | -14.99869 | 38903 ft | 492 kts | 172° |
| 2026-05-07 15:20 | -5.07751 | -14.98980 | 38903 ft | 492 kts | 174° |
| 2026-05-07 15:20 | -5.14553 | -14.98121 | 38904 ft | 492 kts | 173° |
| 2026-05-07 15:21 | -5.20239 | -14.97394 | 38907 ft | 491 kts | 173° |
| 2026-05-07 15:21 | -5.27033 | -14.96521 | 38904 ft | 493 kts | 173° |
| 2026-05-07 15:22 | -5.33789 | -14.95652 | 38899 ft | 492 kts | 173° |
| 2026-05-07 15:22 | -5.40582 | -14.94777 | 38901 ft | 492 kts | 173° |
| 2026-05-07 15:23 | -5.47385 | -14.93900 | 38906 ft | 493 kts | 173° |
| 2026-05-07 15:23 | -5.54189 | -14.93023 | 38898 ft | 493 kts | 173° |
| 2026-05-07 15:24 | -5.61008 | -14.92144 | 38901 ft | 494 kts | 173° |
| 2026-05-07 15:24 | -5.67824 | -14.91265 | 38902 ft | 493 kts | 173° |
| 2026-05-07 15:25 | -5.74640 | -14.90386 | 38903 ft | 494 kts | 173° |
| 2026-05-07 15:25 | -5.81462 | -14.89506 | 38903 ft | 494 kts | 173° |
| 2026-05-07 15:26 | -5.88276 | -14.88626 | 38902 ft | 494 kts | 173° |
| 2026-05-07 15:26 | -5.95102 | -14.87745 | 38653 ft | 494 kts | 173° |
| 2026-05-07 15:27 | -5.98490 | -14.87307 | 38448 ft | 489 kts | 173° |
| 2026-05-07 15:27 | -6.01873 | -14.86871 | 38182 ft | 492 kts | 173° |
| 2026-05-07 15:27 | -6.05265 | -14.86433 | 37770 ft | 491 kts | 173° |
| 2026-05-07 15:27 | -6.08654 | -14.85995 | 37134 ft | 492 kts | 173° |
| 2026-05-07 15:28 | -6.12061 | -14.85555 | 36463 ft | 495 kts | 173° |
| 2026-05-07 15:28 | -6.15481 | -14.85113 | 35779 ft | 497 kts | 172° |
| 2026-05-07 15:28 | -6.18922 | -14.84669 | 34998 ft | 501 kts | 172° |
| 2026-05-07 15:28 | -6.22389 | -14.84221 | 34202 ft | 506 kts | 172° |
| 2026-05-07 15:29 | -6.25855 | -14.83773 | 33302 ft | 510 kts | 172° |
| 2026-05-07 15:29 | -6.29434 | -14.83310 | 32389 ft | 513 kts | 172° |
| 2026-05-07 15:29 | -6.32935 | -14.82857 | 31510 ft | 516 kts | 172° |
| 2026-05-07 15:29 | -6.36505 | -14.82396 | 30593 ft | 516 kts | 172° |
| 2026-05-07 15:30 | -6.40046 | -14.81938 | 30046 ft | 510 kts | 172° |
| 2026-05-07 15:30 | -6.43600 | -14.81479 | 29292 ft | 506 kts | 172° |
| 2026-05-07 15:30 | -6.47021 | -14.81036 | 28386 ft | 500 kts | 172° |
| 2026-05-07 15:30 | -6.50450 | -14.80593 | 27686 ft | 494 kts | 172° |
| 2026-05-07 15:31 | -6.53838 | -14.80154 | 27068 ft | 488 kts | 172° |
| 2026-05-07 15:31 | -6.57189 | -14.79721 | 26438 ft | 482 kts | 172° |
| 2026-05-07 15:31 | -6.60501 | -14.79292 | 25821 ft | 477 kts | 172° |
| 2026-05-07 15:31 | -6.63782 | -14.78867 | 25202 ft | 473 kts | 172° |
| 2026-05-07 15:32 | -6.67030 | -14.78446 | 24584 ft | 469 kts | 172° |
| 2026-05-07 15:32 | -6.70255 | -14.78029 | 23953 ft | 465 kts | 172° |
| 2026-05-07 15:32 | -6.73453 | -14.77615 | 23300 ft | 462 kts | 172° |
| 2026-05-07 15:32 | -6.76628 | -14.77204 | 22611 ft | 458 kts | 172° |
| 2026-05-07 15:33 | -6.79765 | -14.76798 | 21991 ft | 452 kts | 172° |
| 2026-05-07 15:33 | -6.82859 | -14.76397 | 21380 ft | 446 kts | 172° |
| 2026-05-07 15:33 | -6.85921 | -14.76000 | 20759 ft | 441 kts | 172° |
| 2026-05-07 15:33 | -6.88946 | -14.75609 | 20158 ft | 435 kts | 171° |
| 2026-05-07 15:34 | -6.91933 | -14.75222 | 19566 ft | 430 kts | 171° |
| 2026-05-07 15:34 | -6.94885 | -14.74839 | 18970 ft | 426 kts | 171° |
| 2026-05-07 15:34 | -6.97811 | -14.74460 | 18390 ft | 421 kts | 171° |
| 2026-05-07 15:34 | -7.00701 | -14.74085 | 17756 ft | 417 kts | 171° |
| 2026-05-07 15:35 | -7.03553 | -14.73715 | 17158 ft | 411 kts | 171° |
| 2026-05-07 15:35 | -7.06368 | -14.73350 | 16598 ft | 404 kts | 171° |
| 2026-05-07 15:35 | -7.09138 | -14.72990 | 16037 ft | 399 kts | 172° |
| 2026-05-07 15:35 | -7.11878 | -14.72635 | 15483 ft | 394 kts | 172° |
| 2026-05-07 15:36 | -7.14583 | -14.72283 | 14926 ft | 391 kts | 172° |
| 2026-05-07 15:36 | -7.17269 | -14.71935 | 14371 ft | 388 kts | 172° |
| 2026-05-07 15:36 | -7.19936 | -14.71588 | 13823 ft | 385 kts | 172° |
| 2026-05-07 15:36 | -7.22585 | -14.71245 | 13220 ft | 382 kts | 173° |
| 2026-05-07 15:37 | -7.25207 | -14.70904 | 12682 ft | 378 kts | 173° |
| 2026-05-07 15:37 | -7.27802 | -14.70568 | 12145 ft | 374 kts | 173° |
| 2026-05-07 15:37 | -7.30374 | -14.70234 | 11609 ft | 371 kts | 173° |
| 2026-05-07 15:37 | -7.32924 | -14.69903 | 11089 ft | 368 kts | 173° |
| 2026-05-07 15:38 | -7.35448 | -14.69575 | 10671 ft | 362 kts | 173° |
| 2026-05-07 15:38 | -7.37887 | -14.69257 | 10594 ft | 344 kts | 174° |
| 2026-05-07 15:38 | -7.40211 | -14.68954 | 10486 ft | 329 kts | 173° |
| 2026-05-07 15:38 | -7.42442 | -14.68664 | 10329 ft | 317 kts | 174° |
| 2026-05-07 15:39 | -7.44594 | -14.68384 | 10186 ft | 307 kts | 174° |
| 2026-05-07 15:39 | -7.46682 | -14.68113 | 10050 ft | 299 kts | 174° |
| 2026-05-07 15:39 | -7.48719 | -14.67848 | 9912 ft | 291 kts | 174° |
| 2026-05-07 15:39 | -7.50693 | -14.67593 | 9541 ft | 293 kts | 174° |
| 2026-05-07 15:40 | -7.52723 | -14.67330 | 9171 ft | 294 kts | 173° |
| 2026-05-07 15:40 | -7.54747 | -14.67068 | 8827 ft | 294 kts | 173° |
| 2026-05-07 15:40 | -7.56774 | -14.66805 | 8476 ft | 293 kts | 173° |
| 2026-05-07 15:40 | -7.58789 | -14.66543 | 8129 ft | 291 kts | 172° |
| 2026-05-07 15:41 | -7.60777 | -14.66285 | 7787 ft | 288 kts | 172° |
| 2026-05-07 15:41 | -7.62758 | -14.66028 | 7436 ft | 286 kts | 172° |
| 2026-05-07 15:41 | -7.64723 | -14.65772 | 7093 ft | 283 kts | 172° |
| 2026-05-07 15:41 | -7.66674 | -14.65519 | 6748 ft | 281 kts | 171° |
| 2026-05-07 15:42 | -7.68603 | -14.65269 | 6397 ft | 278 kts | 170° |
| 2026-05-07 15:42 | -7.70508 | -14.65021 | 6036 ft | 275 kts | 170° |
| 2026-05-07 15:42 | -7.72401 | -14.64774 | 5708 ft | 272 kts | 171° |
| 2026-05-07 15:42 | -7.74270 | -14.64532 | 5358 ft | 270 kts | 169° |
| 2026-05-07 15:43 | -7.76130 | -14.64290 | 5016 ft | 267 kts | 169° |
| 2026-05-07 15:43 | -7.77968 | -14.64050 | 4692 ft | 265 kts | 170° |
| 2026-05-07 15:43 | -7.79786 | -14.63813 | 4429 ft | 260 kts | 170° |
| 2026-05-07 15:43 | -7.81542 | -14.63586 | 4314 ft | 248 kts | 169° |
| 2026-05-07 15:44 | -7.83190 | -14.63345 | 4212 ft | 230 kts | 165° |
| 2026-05-07 15:44 | -7.84640 | -14.62781 | 4086 ft | 219 kts | 145° |
| 2026-05-07 15:44 | -7.85707 | -14.61769 | 3995 ft | 207 kts | 123° |
| 2026-05-07 15:44 | -7.86439 | -14.60524 | 3750 ft | 206 kts | 116° |
| 2026-05-07 15:45 | -7.87066 | -14.59256 | 3680 ft | 195 kts | 115° |
| 2026-05-07 15:45 | -7.87641 | -14.58072 | 3640 ft | 182 kts | 115° |
| 2026-05-07 15:45 | -7.88180 | -14.56968 | 3575 ft | 169 kts | 116° |
| 2026-05-07 15:45 | -7.88692 | -14.55928 | 3451 ft | 163 kts | 116° |
| 2026-05-07 15:46 | -7.89699 | -14.53897 | 3084 ft | 160 kts | 116° |
| 2026-05-07 15:46 | -7.90199 | -14.52894 | 2965 ft | 160 kts | 117° |
| 2026-05-07 15:46 | -7.90697 | -14.51896 | 2769 ft | 160 kts | 117° |
| 2026-05-07 15:47 | -7.91187 | -14.50917 | 2547 ft | 158 kts | 116° |
| 2026-05-07 15:47 | -7.91675 | -14.49941 | 2323 ft | 149 kts | 117° |
| 2026-05-07 15:47 | -7.92124 | -14.49044 | 2111 ft | 141 kts | 118° |
| 2026-05-07 15:47 | -7.92553 | -14.48183 | 1919 ft | 133 kts | 119° |
| 2026-05-07 15:48 | -7.92949 | -14.47389 | 1778 ft | 121 kts | 119° |
| 2026-05-07 15:48 | -7.93321 | -14.46643 | 1616 ft | 118 kts | 120° |
| 2026-05-07 15:48 | -7.93692 | -14.45903 | 1438 ft | 118 kts | 120° |
| 2026-05-07 15:48 | -7.94061 | -14.45166 | 1275 ft | 117 kts | 120° |
| 2026-05-07 15:49 | -7.94430 | -14.44430 | 1090 ft | 118 kts | 119° |
| 2026-05-07 15:49 | -7.94800 | -14.43685 | 926 ft | 119 kts | 118° |
| 2026-05-07 15:49 | -7.95164 | -14.42941 | 815 ft | 117 kts | 119° |
| 2026-05-07 15:49 | -7.95524 | -14.42203 | 628 ft | 118 kts | 118° |
| 2026-05-07 15:50 | -7.95894 | -14.41459 | 475 ft | 120 kts | 120° |
| 2026-05-07 15:50 | -7.96283 | -14.40702 | 319 ft | 121 kts | 120° |
| 2026-05-07 15:50 | -7.96638 | -14.40010 | 261 ft | 88 kts | 115° |
| 2026-05-07 15:50 | -7.96841 | -14.39607 | 252 ft | 53 kts | 117° |
| 2026-05-07 15:51 | -7.97002 | -14.39291 | 245 ft | 49 kts | 118° |
| 2026-05-07 15:51 | -7.97156 | -14.38997 | 240 ft | 46 kts | 118° |
| 2026-05-07 15:51 | -7.97299 | -14.38716 | 228 ft | 43 kts | 117° |
| 2026-05-07 15:51 | -7.97428 | -14.38451 | 228 ft | 41 kts | 117° |
| 2026-05-07 15:52 | -7.97538 | -14.38233 | 228 ft | 23 kts | 123° |
| 2026-05-07 15:52 | -7.97582 | -14.38173 | 221 ft | 3 kts | 94° |
| 2026-05-07 15:52 | -7.97572 | -14.38169 | 222 ft | 1 kts | 21° |
| 2026-05-07 15:52 | -7.97565 | -14.38176 | 225 ft | 2 kts | 317° |
| 2026-05-07 15:53 | -7.97546 | -14.38200 | 219 ft | 8 kts | 303° |
| 2026-05-07 15:53 | -7.97502 | -14.38281 | 225 ft | 19 kts | 299° |
| 2026-05-07 15:53 | -7.97427 | -14.38431 | 225 ft | 30 kts | 296° |
| 2026-05-07 15:53 | -7.97318 | -14.38647 | 227 ft | 39 kts | 297° |
| 2026-05-07 15:54 | -7.97180 | -14.38917 | 235 ft | 47 kts | 299° |
| 2026-05-07 15:54 | -7.97040 | -14.39215 | 243 ft | 46 kts | 296° |
| 2026-05-07 15:54 | -7.96895 | -14.39498 | 249 ft | 45 kts | 297° |
| 2026-05-07 15:54 | -7.96753 | -14.39776 | 255 ft | 40 kts | 297° |
| 2026-05-07 15:55 | -7.96743 | -14.39930 | 259 ft | 21 kts | 220° |
| 2026-05-07 15:55 | -7.96869 | -14.40003 | 260 ft | 21 kts | 216° |
| 2026-05-07 15:55 | -7.96957 | -14.40117 | 262 ft | 21 kts | 237° |
| 2026-05-07 15:55 | -7.97007 | -14.40249 | 264 ft | 20 kts | 278° |
| 2026-05-07 15:56 | -7.96957 | -14.40383 | 267 ft | 20 kts | 296° |
| 2026-05-07 15:56 | -7.96880 | -14.40403 | 269 ft | 0 kts | 36° |